Cochin, India

2:13 AM IST on August 28, 2015 (GMT +0530)
Cochin International | | Change Station
CLOSE
Current Station
Airport
Location: Cochin International Airp,
Elevation: 26 ft
Nearby Weather Stations

Elev 26 ft 10.15 °N, 76.40 °E | Updated 13 minutes ago

Haze
Haze
79 °F
Feels Like 79 °F
N
4
Wind Variable Wind from East

Today
High -- | Low -- °F
--% Chance of Precip.
Yesterday
High -- | Low -- °F
Precip. -- in
6:15 AM 6:36 PM
Waxing Gibbous, 95% visible
Pressure 29.80 in
Visibility 2.5 miles
Clouds Scattered Clouds 1500 ft
Dew Point 75 °F
Humidity 89%
Rainfall 0.00 in
Snow Depth Not available.
UV 0 out of 12
Pollen Not available.
Air Quality Not available.
Flu Activity Not available.
METAR VOCI 272030Z 09003KT 4000 HZ SCT015 26/24 Q1009 NOSIG
Pressure 29.80 in
Visibility 2.5 miles
Clouds Scattered Clouds 1500 ft
Dew Point 75 °F
Humidity 89%
Rainfall 0.00 in
Snow Depth Not available.
UV 0 out of 12
Pollen Not available.
Air Quality Not available.
Flu Activity Not available.
METAR VOCI 272030Z 09003KT 4000 HZ SCT015 26/24 Q1009 NOSIG

10-Day Weather Forecast

×

Almanac

Astronomy

Aug. 28, 2015 Rise Set
Actual Time
Civil Twilight
Nautical Twilight
Astronomical Twilight
Moon
Length of Visible Light
Length of Day
Tomorrow will be .
, % of the Moon is Illuminated

Today's Extremes

Country Highs Country Lows

Community

WunderPhotos

Upload Photos

1,850,212 photos uploaded!

WunderBlogs® & News

Nearby

Air Quality

  Air Quality AQ Index Pollutant
Not available.

Snow Depth

Station Depth Elevation

Earthquake Activity

City Distance Mag. Time & Date
Minimum magnitude displayed is 2.5.

Coastal Water Temperatures

Place Temperature

Stations

Nearby Weather Stations

Station Location Temp. Windchill Dew Point Humidity Wind Precip. Elev Updated Type